Time;durP1;ratioP1;P1;durP2;ratioP2;P2;SDS_P1;SDS_P2;PMS_P1;PMS_P2;Temp;Humidity;BMP_temperature;BMP_pressure;BME280_temperature;BME280_humidity;BME280_pressure;Samples;Min_cycle;Max_cycle;Signal;HPM_P1;HPM_P2
2022/03/04 00:00:41;;;;;;;55.60;29.07;;;;;;;0.02;66.72;98979.63;2283457;78;20961;-84
2022/03/04 00:03:43;;;;;;;63.20;33.50;;;;;;;-0.03;66.81;98971.63;2283205;78;21018;-82
2022/03/04 00:06:45;;;;;;;66.87;34.27;;;;;;;-0.10;66.84;98973.38;2283652;78;20985;-84
2022/03/04 00:09:45;;;;;;;61.17;32.77;;;;;;;-0.16;67.00;98976.89;2284075;78;21417;-84
2022/03/04 00:12:46;;;;;;;64.13;33.13;;;;;;;-0.18;67.20;98978.48;2283037;78;20930;-83
2022/03/04 00:15:46;;;;;;;57.67;31.17;;;;;;;-0.20;67.18;98973.67;2282704;78;20942;-83
2022/03/04 00:19:06;;;;;;;61.87;30.43;;;;;;;-0.23;67.32;98982.88;2282620;78;20910;-83
2022/03/04 00:21:50;;;;;;;49.27;28.37;;;;;;;-0.23;67.39;98982.88;2279677;78;21042;-83
2022/03/04 00:24:51;;;;;;;45.57;26.37;;;;;;;-0.24;67.46;98983.67;2261346;78;20950;-83
2022/03/04 00:27:51;;;;;;;43.20;25.30;;;;;;;-0.26;67.48;98979.73;2282557;78;20926;-82
2022/03/04 00:30:55;;;;;;;43.03;26.37;;;;;;;-0.27;67.47;98980.94;2251387;79;21022;-83
2022/03/04 00:33:55;;;;;;;37.73;24.70;;;;;;;-0.25;67.56;98983.19;2276883;78;20906;-83
2022/03/04 00:36:58;;;;;;;39.80;24.33;;;;;;;-0.27;67.68;98978.38;2282895;78;20891;-83
2022/03/04 00:39:59;;;;;;;39.00;24.20;;;;;;;-0.28;67.74;98980.05;2282520;78;20886;-83
2022/03/04 00:42:59;;;;;;;43.57;24.93;;;;;;;-0.25;67.80;98978.06;2282757;78;21009;-83
2022/03/04 00:46:00;;;;;;;49.70;26.07;;;;;;;-0.26;67.85;98977.17;2282637;78;20927;-83
2022/03/04 00:49:00;;;;;;;58.30;25.67;;;;;;;-0.28;68.04;98972.36;2283027;78;20978;-83
2022/03/04 00:52:01;;;;;;;53.20;24.50;;;;;;;-0.33;68.08;98978.52;2282658;78;20970;-83
2022/03/04 00:55:01;;;;;;;53.50;24.60;;;;;;;-0.36;68.49;98973.61;2282813;78;20992;-84
2022/03/04 00:58:02;;;;;;;42.90;22.23;;;;;;;-0.43;68.56;98972.78;2283128;78;20918;-84
2022/03/04 01:01:02;;;;;;;45.80;25.80;;;;;;;-0.46;68.67;98978.62;2269818;78;21006;-84
2022/03/04 01:04:03;;;;;;;39.17;23.77;;;;;;;-0.45;68.85;98974.38;2251502;79;20944;-83
2022/03/04 01:07:04;;;;;;;37.77;21.93;;;;;;;-0.43;68.83;98976.62;2251987;79;20979;-83
2022/03/04 01:10:04;;;;;;;39.73;23.50;;;;;;;-0.42;68.92;98979.27;2251898;79;20924;-83
2022/03/04 01:13:05;;;;;;;40.83;23.50;;;;;;;-0.42;68.98;98975.83;2250708;78;20932;-83
2022/03/04 01:16:05;;;;;;;36.17;21.23;;;;;;;0.94;85.40;98971.30;2251634;79;20916;-83
2022/03/04 01:19:07;;;;;;;34.53;21.80;;;;;;;1.30;68.79;98968.41;2223552;79;21383;-82
2022/03/04 01:22:08;;;;;;;37.00;20.80;;;;;;;0.84;67.64;98967.33;2250722;79;20963;-83
2022/03/04 01:25:08;;;;;;;35.67;21.87;;;;;;;0.60;67.67;98973.77;2250605;78;20873;-83
2022/03/04 01:28:09;;;;;;;32.77;21.43;;;;;;;0.43;67.74;98969.02;2250879;79;20924;-83
2022/03/04 01:31:10;;;;;;;32.03;20.00;;;;;;;0.34;67.86;98966.36;2250777;78;20937;-83
2022/03/04 01:34:11;;;;;;;34.57;21.27;;;;;;;0.29;68.05;98969.97;2250709;79;21027;-83
2022/03/04 01:37:13;;;;;;;33.40;21.50;;;;;;;0.25;68.13;98966.75;2250628;78;20944;-83
2022/03/04 01:40:14;;;;;;;39.23;22.50;;;;;;;0.22;68.17;98970.44;2250597;79;21332;-83
2022/03/04 01:43:14;;;;;;;45.23;25.60;;;;;;;0.18;68.39;98969.79;2250585;79;20968;-83
2022/03/04 01:46:15;;;;;;;41.97;23.90;;;;;;;0.09;68.68;98971.45;2251019;79;20964;-83
2022/03/04 01:49:15;;;;;;;37.43;22.67;;;;;;;0.02;68.73;98969.75;2251438;78;20968;-83
2022/03/04 01:52:16;;;;;;;42.60;24.37;;;;;;;-0.02;68.96;98966.10;2250645;79;20916;-83
2022/03/04 01:55:17;;;;;;;41.10;24.30;;;;;;;-0.07;69.22;98964.97;2250813;78;21308;-84
2022/03/04 01:58:17;;;;;;;39.93;23.90;;;;;;;-0.12;69.37;98962.15;2250682;79;20963;-83
2022/03/04 02:01:18;;;;;;;39.23;23.77;;;;;;;-0.18;69.55;98966.94;2263412;77;21009;-84
2022/03/04 02:04:18;;;;;;;39.37;24.20;;;;;;;-0.23;69.89;98968.36;2283141;78;20910;-84
2022/03/04 02:07:18;;;;;;;39.53;23.13;;;;;;;-0.22;69.75;98969.25;2283218;78;20951;-83
2022/03/04 02:10:19;;;;;;;38.70;23.80;;;;;;;-0.21;69.74;98968.05;2283369;78;20938;-83
2022/03/04 02:13:20;;;;;;;42.83;24.70;;;;;;;-0.20;69.77;98969.82;2283008;78;20985;-83
2022/03/04 02:16:21;;;;;;;39.30;23.53;;;;;;;-0.19;69.83;98966.45;2283219;78;20970;-83
2022/03/04 02:19:22;;;;;;;45.20;24.00;;;;;;;-0.18;69.88;98972.47;2283378;78;20951;-83
2022/03/04 02:22:22;;;;;;;44.97;26.13;;;;;;;-0.14;69.84;98974.01;2283184;78;20970;-83
2022/03/04 02:25:23;;;;;;;46.17;26.13;;;;;;;-0.11;70.00;98978.42;2283220;78;20910;-83
2022/03/04 02:28:24;;;;;;;45.20;26.57;;;;;;;-0.09;69.96;98978.11;2283358;78;20910;-84
2022/03/04 02:31:24;;;;;;;48.30;27.50;;;;;;;-0.08;70.09;98980.77;2283912;78;20934;-84
2022/03/04 02:34:25;;;;;;;53.40;29.00;;;;;;;-0.04;70.08;98980.13;2283795;78;20926;-84
2022/03/04 02:37:25;;;;;;;52.83;28.80;;;;;;;0.01;70.18;98982.10;2283583;78;20969;-83
2022/03/04 02:40:26;;;;;;;48.03;28.27;;;;;;;-0.01;70.27;98975.57;2283342;78;20977;-84
2022/03/04 02:43:26;;;;;;;53.37;30.90;;;;;;;-0.03;70.41;98975.48;2283375;78;21072;-84
2022/03/04 02:46:27;;;;;;;59.20;32.03;;;;;;;-0.03;70.86;98974.20;2283702;78;21278;-84
2022/03/04 02:49:27;;;;;;;54.97;31.80;;;;;;;-0.05;70.77;98970.67;2283724;78;20913;-84
2022/03/04 02:52:28;;;;;;;60.80;33.20;;;;;;;-0.06;71.32;98976.59;2283008;78;20887;-83
2022/03/04 02:55:29;;;;;;;68.33;35.90;;;;;;;-0.09;71.37;98976.43;2283069;78;20923;-83
2022/03/04 02:58:29;;;;;;;61.03;34.40;;;;;;;-0.08;71.34;98974.34;2283154;78;21278;-84
2022/03/04 03:04:32;;;;;;;68.97;37.20;;;;;;;-0.10;72.48;98977.23;2223864;79;20932;-80
2022/03/04 03:07:33;;;;;;;67.53;37.03;;;;;;;-0.14;72.78;98973.13;2251061;79;20952;-79
2022/03/04 03:13:42;;;;;;;68.90;38.90;;;;;;;-0.14;72.82;98970.56;2223431;79;21067;-84
2022/03/04 03:16:42;;;;;;;68.23;39.97;;;;;;;-0.17;72.92;98976.41;2251082;78;20984;-81
2022/03/04 03:19:43;;;;;;;131.27;43.17;;;;;;;-0.15;72.85;98982.91;2250676;79;20979;-83
2022/03/04 03:22:43;;;;;;;74.33;40.57;;;;;;;-0.10;73.03;98983.64;2251145;79;20905;-83
2022/03/04 03:25:44;;;;;;;104.50;41.93;;;;;;;-0.04;73.44;98983.98;2250886;78;20896;-82
2022/03/04 03:28:44;;;;;;;78.47;39.90;;;;;;;0.01;73.17;98987.23;2250703;78;20885;-83
2022/03/04 03:31:45;;;;;;;81.87;43.27;;;;;;;0.01;73.17;98985.95;2250534;78;21228;-82
2022/03/04 03:34:45;;;;;;;129.60;43.57;;;;;;;0.02;73.39;98985.16;2251031;79;20944;-84
2022/03/04 03:37:46;;;;;;;101.97;44.17;;;;;;;-0.01;73.34;98989.28;2250656;78;20944;-83
2022/03/04 03:40:46;;;;;;;83.70;42.67;;;;;;;0.03;73.52;98990.38;2250175;78;20944;-83
2022/03/04 03:43:47;;;;;;;88.17;43.47;;;;;;;0.04;73.59;98987.41;2249924;78;20964;-83
2022/03/04 03:46:47;;;;;;;85.23;43.63;;;;;;;0.06;73.64;98996.07;2250302;79;20939;-83
2022/03/04 03:49:48;;;;;;;87.87;43.30;;;;;;;0.06;73.89;99002.48;2250165;78;21284;-84
2022/03/04 03:52:48;;;;;;;78.33;42.70;;;;;;;0.05;73.86;98990.45;2250170;79;20873;-83
2022/03/04 03:55:48;;;;;;;86.73;44.53;;;;;;;0.04;73.86;98996.39;2250620;78;20929;-85
2022/03/04 03:58:49;;;;;;;85.03;44.80;;;;;;;0.04;74.00;98998.95;2251113;78;20971;-84
2022/03/04 04:01:49;;;;;;;86.47;46.07;;;;;;;-0.02;74.91;98990.08;2268155;77;20972;-84
2022/03/04 04:04:50;;;;;;;88.03;45.23;;;;;;;-0.08;74.48;98992.70;2293285;78;20884;-80
2022/03/04 04:07:50;;;;;;;88.50;46.13;;;;;;;-0.10;74.90;98996.47;2292521;78;20963;-84
2022/03/04 04:10:51;;;;;;;80.07;42.23;;;;;;;-0.10;74.84;98996.88;2291348;78;21231;-84
2022/03/04 04:13:51;;;;;;;80.07;41.60;;;;;;;1.33;90.60;98990.83;2290939;78;21015;-81
2022/03/04 04:16:52;;;;;;;86.33;46.00;;;;;;;1.58;74.84;98989.55;2292638;78;21012;-84
2022/03/04 04:19:53;;;;;;;82.27;45.13;;;;;;;1.26;73.45;98993.50;2291631;78;21000;-84
2022/03/04 04:22:54;;;;;;;88.33;45.87;;;;;;;0.97;73.17;98993.30;2291120;78;21210;-84
2022/03/04 04:25:54;;;;;;;80.70;43.57;;;;;;;0.73;73.32;98994.16;2290674;78;21374;-84
2022/03/04 04:31:58;;;;;;;166.13;46.50;;;;;;;0.48;73.87;98998.40;2268511;78;20984;-83
2022/03/04 04:34:58;;;;;;;88.43;45.33;;;;;;;0.44;74.15;98999.03;2291074;78;22085;-81
2022/03/04 04:37:59;;;;;;;83.23;44.43;;;;;;;0.46;74.11;98996.16;2291325;78;20929;-83
2022/03/04 04:40:59;;;;;;;98.67;42.87;;;;;;;0.47;74.29;98997.92;2292533;78;20904;-85
2022/03/04 04:44:00;;;;;;;87.10;45.30;;;;;;;0.50;74.27;99003.22;2291433;78;21055;-84
2022/03/04 04:47:01;;;;;;;87.87;44.93;;;;;;;0.49;74.17;99002.73;2292359;78;21398;-83
2022/03/04 04:50:01;;;;;;;88.73;45.97;;;;;;;0.45;74.16;99005.94;2289986;78;20952;-82
2022/03/04 04:53:03;;;;;;;80.07;45.50;;;;;;;0.44;74.25;99009.31;2291696;78;20983;-83
2022/03/04 04:56:03;;;;;;;106.73;42.20;;;;;;;0.46;74.35;99006.42;2292292;78;20968;-83
2022/03/04 04:59:04;;;;;;;53.60;26.83;;;;;;;0.51;74.59;99004.10;2292310;78;21015;-82
2022/03/04 05:02:05;;;;;;;77.93;40.50;;;;;;;0.70;82.87;99003.39;2288679;78;21026;-83
2022/03/04 05:05:08;;;;;;;77.97;41.27;;;;;;;2.55;76.83;98997.20;2282942;77;21053;-84
2022/03/04 05:08:09;;;;;;;77.87;42.07;;;;;;;2.18;73.00;99004.03;2282091;78;21040;-83
2022/03/04 05:11:10;;;;;;;80.53;44.70;;;;;;;1.78;72.43;99004.71;2282421;78;20930;-85
2022/03/04 05:14:10;;;;;;;82.23;44.50;;;;;;;1.53;72.38;99005.56;2282836;78;20977;-84
2022/03/04 05:17:11;;;;;;;85.93;45.00;;;;;;;1.35;72.62;99008.51;2281954;78;20918;-83
2022/03/04 05:20:11;;;;;;;80.47;44.23;;;;;;;1.23;72.76;99012.22;2282721;78;20910;-84
2022/03/04 05:23:58;;;;;;;86.07;45.10;;;;;;;1.18;72.97;99014.08;2282579;78;20974;-85
2022/03/04 05:26:14;;;;;;;84.87;42.77;;;;;;;1.12;73.06;99017.63;2277300;78;21049;-84
2022/03/04 05:29:14;;;;;;;87.47;45.23;;;;;;;1.09;73.19;99018.75;2279539;78;20961;-83
2022/03/04 05:32:15;;;;;;;89.93;44.83;;;;;;;1.07;73.35;99021.64;2279002;78;20975;-84
2022/03/04 05:35:16;;;;;;;87.57;46.30;;;;;;;1.06;73.41;99022.05;2279106;78;20989;-84
2022/03/04 05:38:16;;;;;;;98.63;45.83;;;;;;;1.00;73.39;99029.44;2280674;78;20981;-84
2022/03/04 05:41:17;;;;;;;90.30;46.97;;;;;;;0.98;73.62;99029.77;2281201;78;20911;-84
2022/03/04 05:44:18;;;;;;;99.27;47.97;;;;;;;0.95;73.64;99034.75;2280924;78;20999;-84
2022/03/04 05:47:18;;;;;;;125.10;62.77;;;;;;;0.84;74.05;99035.84;2280909;78;20973;-83
2022/03/04 05:50:19;;;;;;;104.60;52.77;;;;;;;0.84;74.05;99035.84;2282116;78;20945;-83
2022/03/04 05:53:19;;;;;;;111.17;56.17;;;;;;;0.81;74.07;99039.53;2281876;78;20938;-83
2022/03/04 05:56:20;;;;;;;102.87;49.10;;;;;;;0.76;74.24;99036.72;2282003;78;20993;-83
2022/03/04 05:59:20;;;;;;;97.67;49.80;;;;;;;0.72;74.42;99044.18;2260771;78;21404;-81
2022/03/04 06:02:21;;;;;;;94.53;48.00;;;;;;;0.74;74.59;99041.29;2279668;78;21044;-80
2022/03/04 06:05:24;;;;;;;100.97;51.23;;;;;;;0.75;74.76;99043.06;2280514;78;20998;-78
2022/03/04 06:08:25;;;;;;;99.17;50.47;;;;;;;0.76;74.83;99043.54;2280569;78;20967;-81
2022/03/04 06:11:27;;;;;;;102.57;52.67;;;;;;;0.75;75.00;99044.34;2278370;78;21024;-82
2022/03/04 06:14:28;;;;;;;99.13;51.07;;;;;;;0.78;75.00;99047.95;2279493;78;21040;-81
2022/03/04 06:17:28;;;;;;;104.13;52.73;;;;;;;0.77;74.99;99050.45;2280161;78;21404;-81
2022/03/04 06:20:28;;;;;;;114.40;59.83;;;;;;;0.78;75.19;99056.06;2279431;78;20935;-81
2022/03/04 06:23:29;;;;;;;111.73;56.90;;;;;;;0.79;75.15;99065.14;2279704;78;20980;-81
2022/03/04 06:26:32;;;;;;;105.80;51.70;;;;;;;0.79;75.19;99068.11;2279231;78;21020;-82
2022/03/04 06:29:35;;;;;;;106.47;53.67;;;;;;;0.80;75.33;99070.77;2258064;78;20966;-80
2022/03/04 06:32:35;;;;;;;101.83;52.53;;;;;;;0.83;75.37;99063.22;2278441;78;21325;-80
2022/03/04 06:35:36;;;;;;;106.70;52.27;;;;;;;0.87;75.40;99066.87;2278830;78;21399;-81
2022/03/04 06:38:36;;;;;;;121.40;58.60;;;;;;;0.87;75.36;99072.89;2279143;78;20981;-82
2022/03/04 06:41:37;;;;;;;116.00;57.00;;;;;;;0.88;75.43;99079.80;2279857;78;21016;-81
2022/03/04 06:44:37;;;;;;;114.80;59.80;;;;;;;0.88;75.59;99081.48;2279958;78;21009;-80
2022/03/04 06:47:38;;;;;;;158.37;77.77;;;;;;;0.82;75.65;99090.12;2280175;78;20980;-80
2022/03/04 06:50:40;;;;;;;116.63;59.67;;;;;;;0.83;75.84;99081.61;2280759;78;21060;-83
2022/03/04 06:53:41;;;;;;;123.47;58.50;;;;;;;1.11;77.03;99077.56;2280779;78;20985;-82
2022/03/04 06:56:41;;;;;;;124.33;62.00;;;;;;;1.15;76.13;99086.80;2279092;78;21072;-82
2022/03/04 06:59:42;;;;;;;139.80;65.33;;;;;;;1.09;75.90;99091.62;2278718;78;21451;-82
2022/03/04 07:02:42;;;;;;;132.07;64.80;;;;;;;1.05;75.91;99099.97;2264431;77;21065;-82
2022/03/04 07:05:43;;;;;;;114.57;58.57;;;;;;;1.02;76.02;99106.23;2247622;79;20971;-81
2022/03/04 07:08:44;;;;;;;121.37;60.43;;;;;;;0.99;75.96;99100.94;2247213;79;20955;-81
2022/03/04 07:11:44;;;;;;;120.10;58.33;;;;;;;1.05;76.29;99094.83;2247852;79;21003;-81
2022/03/04 07:14:45;;;;;;;124.33;62.87;;;;;;;1.10;76.24;99094.67;2246567;79;20996;-81
2022/03/04 07:17:45;;;;;;;126.70;57.00;;;;;;;1.19;76.23;99095.16;2246297;79;20963;-82
2022/03/04 07:20:47;;;;;;;121.63;57.97;;;;;;;1.34;75.94;99093.78;2247041;79;21103;-81
2022/03/04 07:23:47;;;;;;;119.40;59.07;;;;;;;1.46;75.71;99099.96;2246789;78;20968;-81
2022/03/04 07:26:48;;;;;;;123.23;60.80;;;;;;;1.60;75.44;99106.70;2246815;79;20969;-81
2022/03/04 07:29:49;;;;;;;128.33;64.20;;;;;;;1.73;75.23;99105.22;2246898;79;20995;-81
2022/03/04 07:32:49;;;;;;;124.43;62.07;;;;;;;1.78;74.82;99106.38;2246980;78;21386;-82
2022/03/04 07:35:50;;;;;;;123.33;60.93;;;;;;;1.78;74.94;99111.52;2248154;79;21014;-81
2022/03/04 07:38:50;;;;;;;126.97;63.43;;;;;;;1.76;74.65;99117.39;2248089;79;20979;-81
2022/03/04 07:41:51;;;;;;;129.23;63.27;;;;;;;1.71;74.71;99118.42;2247835;79;20917;-81
2022/03/04 07:44:52;;;;;;;126.60;62.53;;;;;;;1.73;74.82;99120.66;2247472;79;20999;-83
2022/03/04 07:47:52;;;;;;;126.40;60.67;;;;;;;1.78;74.68;99119.23;2246683;79;20955;-79
2022/03/04 07:50:53;;;;;;;123.50;60.27;;;;;;;1.85;74.57;99123.00;2245805;78;20994;-80
2022/03/04 07:53:55;;;;;;;122.20;59.30;;;;;;;1.98;74.35;99117.66;2223598;78;20940;-80
2022/03/04 07:56:56;;;;;;;129.20;61.13;;;;;;;2.18;74.11;99120.81;2247113;78;21011;-81
2022/03/04 07:59:56;;;;;;;119.77;59.83;;;;;;;2.41;73.76;99121.05;2246638;79;21003;-83
2022/03/04 08:02:57;;;;;;;140.50;70.20;;;;;;;2.61;73.31;99111.72;2266510;77;21422;-81
2022/03/04 08:05:58;;;;;;;133.93;67.00;;;;;;;2.78;72.72;99119.84;2288253;78;21380;-80
2022/03/04 08:08:58;;;;;;;134.87;66.57;;;;;;;2.83;72.56;99126.97;2287838;78;20972;-79
2022/03/04 08:11:59;;;;;;;128.57;64.67;;;;;;;2.84;72.47;99120.12;2287404;78;20948;-82
2022/03/04 08:15:00;;;;;;;129.13;65.07;;;;;;;2.79;72.24;99125.47;2287719;78;21398;-80
2022/03/04 08:18:00;;;;;;;122.43;59.60;;;;;;;2.68;72.20;99124.08;2288553;78;21854;-82
2022/03/04 08:21:00;;;;;;;127.23;60.03;;;;;;;2.54;72.25;99124.69;2288628;78;21039;-81
2022/03/04 08:24:02;;;;;;;118.93;58.67;;;;;;;2.39;72.62;99131.28;2288907;78;20991;-80
2022/03/04 08:27:02;;;;;;;123.87;58.27;;;;;;;2.43;72.87;99131.91;2289436;78;21391;-79
2022/03/04 08:30:03;;;;;;;114.57;54.43;;;;;;;2.47;72.84;99137.68;2288989;78;20998;-80
2022/03/04 08:33:03;;;;;;;96.63;49.60;;;;;;;2.49;72.51;99139.92;2289733;78;20924;-82
2022/03/04 08:36:04;;;;;;;104.07;52.33;;;;;;;2.49;72.60;99137.34;2290403;78;21694;-79
2022/03/04 08:39:05;;;;;;;144.30;68.20;;;;;;;2.61;72.65;99138.38;2289350;78;21401;-82
2022/03/04 08:42:06;;;;;;;127.23;61.87;;;;;;;2.68;72.75;99144.30;2290907;78;21031;-81
2022/03/04 08:45:07;;;;;;;126.57;59.60;;;;;;;2.92;73.67;99141.10;2288338;78;21063;-83
2022/03/04 08:48:10;;;;;;;132.47;62.10;;;;;;;3.06;72.83;99150.36;2288611;78;20963;-84
2022/03/04 08:51:09;;;;;;;137.37;65.53;;;;;;;3.08;72.78;99147.45;2289198;77;21642;-82
2022/03/04 08:54:10;;;;;;;130.10;57.53;;;;;;;3.08;72.57;99151.31;2289198;78;20999;-82
2022/03/04 08:57:11;;;;;;;134.37;60.97;;;;;;;3.06;72.34;99151.65;2289560;78;20932;-83
2022/03/04 09:00:11;;;;;;;131.20;60.47;;;;;;;3.14;72.60;99145.14;2291715;78;20944;-81
2022/03/04 09:03:12;;;;;;;113.13;52.90;;;;;;;3.28;72.24;99151.81;2286846;78;21123;-83
2022/03/04 09:06:13;;;;;;;120.80;55.67;;;;;;;3.28;72.34;99153.10;2280680;78;20962;-82
2022/03/04 09:09:13;;;;;;;112.70;52.37;;;;;;;3.25;72.38;99163.28;2278361;78;21012;-81
2022/03/04 09:12:15;;;;;;;119.80;53.30;;;;;;;3.06;72.40;99167.12;2279205;78;20951;-82
2022/03/04 09:15:15;;;;;;;123.20;50.70;;;;;;;2.87;72.80;99169.25;2279703;78;21063;-79
2022/03/04 09:18:16;;;;;;;111.20;51.83;;;;;;;2.78;72.99;99168.81;2280504;78;20975;-80
2022/03/04 09:21:16;;;;;;;112.90;52.30;;;;;;;2.77;73.27;99163.19;2279932;78;21452;-82
2022/03/04 09:27:33;;;;;;;117.60;51.33;;;;;;;2.84;73.21;99164.83;2237063;79;22242;-84
2022/03/04 09:30:36;;;;;;;114.87;53.13;;;;;;;2.92;73.25;99163.02;2188330;81;20972;-83
2022/03/04 09:33:36;;;;;;;103.27;49.43;;;;;;;3.01;73.20;99167.31;2188191;81;20952;-81
2022/03/04 09:36:36;;;;;;;108.57;49.10;;;;;;;2.93;72.73;99165.67;2189159;81;21087;-85
2022/03/04 09:39:37;;;;;;;110.87;53.10;;;;;;;2.88;73.12;99170.61;2189417;81;20988;-83
2022/03/04 09:42:37;;;;;;;113.83;52.47;;;;;;;2.95;73.40;99169.61;2170061;81;20917;-83
2022/03/04 09:45:38;;;;;;;111.27;50.87;;;;;;;2.91;73.26;99172.45;2190823;81;21034;-83
2022/03/04 09:48:40;;;;;;;118.93;54.53;;;;;;;2.90;73.44;99171.97;2190782;81;20964;-84
2022/03/04 09:54:43;;;;;;;112.80;53.37;;;;;;;2.87;74.08;99174.41;2169502;81;21035;-83
2022/03/04 09:57:43;;;;;;;98.67;48.17;;;;;;;2.83;74.06;99170.80;2188979;81;21380;-84
2022/03/04 10:00:44;;;;;;;91.37;45.77;;;;;;;2.74;73.78;99174.23;2189311;81;21000;-84
2022/03/04 10:03:44;;;;;;;95.90;45.40;;;;;;;2.74;73.75;99176.81;2189142;81;20949;-84
2022/03/04 10:06:45;;;;;;;91.57;44.73;;;;;;;2.77;73.76;99176.07;2188624;81;21454;-82
2022/03/04 10:09:46;;;;;;;83.90;42.20;;;;;;;2.85;73.45;99178.61;2188557;81;21332;-83
2022/03/04 10:12:46;;;;;;;96.73;47.37;;;;;;;2.91;73.60;99178.89;2187974;81;21603;-84
2022/03/04 10:15:47;;;;;;;81.33;42.43;;;;;;;2.93;73.53;99186.30;2187604;81;21002;-85
2022/03/04 10:18:48;;;;;;;88.13;43.83;;;;;;;2.88;73.19;99187.37;2188575;81;20955;-82
2022/03/04 10:21:48;;;;;;;89.67;45.00;;;;;;;2.75;73.75;99186.72;2187715;81;20952;-84
2022/03/04 10:24:49;;;;;;;86.90;43.00;;;;;;;2.78;73.50;99191.61;2187682;80;20991;-84
2022/03/04 10:27:49;;;;;;;95.03;46.33;;;;;;;2.94;73.78;99192.34;2171291;82;20969;-84
2022/03/04 10:30:50;;;;;;;88.00;40.67;;;;;;;2.98;73.45;99187.80;2171058;82;21027;-85
2022/03/04 10:33:50;;;;;;;92.87;43.47;;;;;;;2.95;73.17;99189.83;2172137;82;20972;-85
2022/03/04 10:36:53;;;;;;;111.87;51.00;;;;;;;3.02;72.99;99181.98;2137645;82;20977;-82
2022/03/04 10:39:53;;;;;;;98.37;46.00;;;;;;;3.07;72.85;99187.83;2171412;82;20949;-85
2022/03/04 10:42:54;;;;;;;97.93;46.50;;;;;;;2.97;72.99;99178.30;2171971;81;20992;-81
2022/03/04 10:45:54;;;;;;;92.33;42.07;;;;;;;2.96;73.32;99181.28;2171622;82;21028;-84
2022/03/04 10:48:55;;;;;;;90.33;43.23;;;;;;;3.25;75.41;99180.05;2171440;82;20989;-80
2022/03/04 10:51:55;;;;;;;93.10;43.00;;;;;;;3.86;72.39;99173.78;2172015;81;21352;-81
2022/03/04 10:54:56;;;;;;;86.97;41.93;;;;;;;3.80;71.76;99167.94;2171739;81;21275;-81
2022/03/04 10:57:56;;;;;;;81.87;40.97;;;;;;;3.83;71.40;99167.19;2171081;82;21352;-83
2022/03/04 11:00:57;;;;;;;80.40;40.47;;;;;;;3.67;71.34;99177.26;2171664;82;21897;-79
2022/03/04 11:03:58;;;;;;;83.23;39.13;;;;;;;3.50;71.79;99179.50;2171771;81;20926;-82
2022/03/04 11:06:58;;;;;;;82.90;40.47;;;;;;;3.53;71.68;99186.09;2171375;82;20936;-81
2022/03/04 11:09:58;;;;;;;78.20;39.20;;;;;;;3.50;71.34;99184.66;2170962;82;20948;-80
2022/03/04 11:12:59;;;;;;;74.13;37.67;;;;;;;3.36;71.55;99181.83;2170800;81;20976;-80
2022/03/04 11:16:00;;;;;;;84.57;39.77;;;;;;;3.16;72.30;99181.80;2170993;82;20983;-80
2022/03/04 11:19:00;;;;;;;72.60;38.67;;;;;;;3.10;72.50;99187.97;2171139;82;20948;-81
2022/03/04 11:22:01;;;;;;;77.00;38.00;;;;;;;3.17;72.44;99182.28;2170945;82;20984;-80
2022/03/04 11:25:02;;;;;;;73.23;38.07;;;;;;;3.27;72.42;99180.13;2170890;82;21416;-82
2022/03/04 11:28:03;;;;;;;70.17;38.67;;;;;;;3.26;72.39;99180.53;2170627;81;20976;-80
2022/03/04 11:31:06;;;;;;;77.30;37.10;;;;;;;3.30;72.55;99188.00;2170555;82;20920;-80
2022/03/04 11:34:07;;;;;;;70.57;37.30;;;;;;;3.43;72.23;99180.00;2170975;81;21368;-80
2022/03/04 11:37:08;;;;;;;71.43;35.57;;;;;;;3.58;71.75;99187.58;2170578;81;21320;-79
2022/03/04 11:40:33;;;;;;;70.37;36.53;;;;;;;3.83;71.68;99174.94;2171405;81;20980;-80
2022/03/04 11:43:10;;;;;;;60.47;32.37;;;;;;;4.03;70.93;99182.25;2169314;82;20993;-81
2022/03/04 11:46:11;;;;;;;59.73;33.07;;;;;;;4.33;69.85;99177.08;2171768;81;20984;-81
2022/03/04 11:49:11;;;;;;;63.80;34.03;;;;;;;4.53;69.36;99172.77;2172185;81;21046;-82
2022/03/04 11:52:15;;;;;;;58.70;32.13;;;;;;;4.51;67.97;99168.35;2172743;81;20984;-82
2022/03/04 11:55:20;;;;;;;49.40;27.83;;;;;;;4.68;68.72;99163.04;2172213;81;20988;-84
2022/03/04 11:58:17;;;;;;;53.27;29.47;;;;;;;4.90;66.80;99158.30;2171409;81;21320;-81
2022/03/04 12:01:17;;;;;;;36.57;23.40;;;;;;;5.01;66.24;99153.54;2171382;81;20972;-83
2022/03/04 12:04:18;;;;;;;41.07;25.63;;;;;;;5.28;64.82;99149.45;2172143;82;20984;-81
2022/03/04 12:07:18;;;;;;;44.90;27.03;;;;;;;5.42;65.25;99147.37;2172056;81;21019;-83
2022/03/04 12:10:19;;;;;;;36.37;21.67;;;;;;;5.48;64.39;99156.66;2171369;82;20992;-83
2022/03/04 12:13:20;;;;;;;32.60;21.37;;;;;;;5.34;64.38;99154.85;2170802;81;21764;-82
2022/03/04 12:16:21;;;;;;;30.03;19.07;;;;;;;5.09;63.87;99149.13;2171497;81;20948;-83
2022/03/04 12:19:21;;;;;;;50.63;22.87;;;;;;;4.89;64.28;99153.95;2171507;81;20969;-81
2022/03/04 12:22:22;;;;;;;44.77;25.80;;;;;;;4.73;64.60;99153.76;2170989;81;20960;-82
2022/03/04 12:25:22;;;;;;;43.77;24.83;;;;;;;4.73;65.02;99155.46;2171226;81;21092;-82
2022/03/04 12:28:23;;;;;;;44.83;25.47;;;;;;;4.84;65.05;99152.89;2171451;81;20937;-81
2022/03/04 12:31:26;;;;;;;39.13;22.27;;;;;;;4.96;65.53;99148.19;2172361;81;20957;-81
2022/03/04 12:34:31;;;;;;;38.97;22.73;;;;;;;5.03;64.32;99152.78;2170650;81;20976;-82
2022/03/04 12:37:28;;;;;;;35.80;21.57;;;;;;;5.00;64.15;99152.66;2171343;81;20948;-82
2022/03/04 12:40:29;;;;;;;37.83;22.30;;;;;;;4.98;63.39;99154.30;2172037;81;20977;-82
2022/03/04 12:43:29;;;;;;;43.93;25.47;;;;;;;4.92;63.25;99146.72;2171476;81;21394;-79
2022/03/04 12:46:30;;;;;;;36.10;20.77;;;;;;;4.94;64.07;99155.01;2171065;81;21359;-83
2022/03/04 12:49:30;;;;;;;31.23;18.50;;;;;;;4.90;63.97;99150.95;2171303;82;21363;-81
2022/03/04 12:52:31;;;;;;;27.93;18.30;;;;;;;4.84;63.44;99154.18;2169985;82;21458;-82
2022/03/04 12:55:31;;;;;;;35.33;22.17;;;;;;;4.84;63.71;99147.72;2169804;81;20961;-81
2022/03/04 12:58:32;;;;;;;35.80;21.77;;;;;;;4.89;64.47;99154.36;2169633;81;20984;-82
2022/03/04 13:01:33;;;;;;;42.57;25.57;;;;;;;4.98;65.05;99150.84;2169999;81;21012;-80
2022/03/04 13:04:33;;;;;;;31.37;20.07;;;;;;;5.07;64.00;99157.25;2170138;81;20945;-81
2022/03/04 13:07:36;;;;;;;36.90;19.70;;;;;;;5.06;64.16;99150.30;2170825;81;20925;-84
2022/03/04 13:10:36;;;;;;;27.47;17.57;;;;;;;5.00;63.80;99151.37;2170907;82;20961;-82
2022/03/04 13:13:36;;;;;;;30.97;18.97;;;;;;;4.84;63.25;99147.72;2171119;81;21423;-82
2022/03/04 13:16:37;;;;;;;29.27;16.27;;;;;;;4.79;64.01;99149.23;2171463;82;21004;-80
2022/03/04 13:19:39;;;;;;;32.33;18.27;;;;;;;4.62;63.53;99145.98;2172031;81;20961;-79
2022/03/04 13:22:39;;;;;;;26.23;17.07;;;;;;;4.48;64.18;99142.84;2171532;82;20951;-83
2022/03/04 13:25:40;;;;;;;29.70;17.20;;;;;;;4.32;64.09;99140.42;2171570;80;20984;-83
2022/03/04 13:28:40;;;;;;;29.43;18.30;;;;;;;4.20;64.56;99146.38;2188478;81;21003;-81
2022/03/04 13:31:41;;;;;;;31.90;18.67;;;;;;;4.09;64.77;99145.05;2188854;81;21003;-82
2022/03/04 13:34:45;;;;;;;25.57;17.17;;;;;;;3.93;64.82;99151.68;2169385;81;21701;-82
2022/03/04 13:37:46;;;;;;;26.67;18.10;;;;;;;3.79;65.69;99152.38;2188707;81;20995;-82
2022/03/04 13:40:47;;;;;;;26.47;17.87;;;;;;;3.66;66.27;99153.55;2189303;81;21000;-82
2022/03/04 13:43:47;;;;;;;35.67;20.83;;;;;;;3.56;66.92;99163.41;2189505;81;20983;-83
2022/03/04 13:46:48;;;;;;;38.73;22.67;;;;;;;3.44;68.54;99154.67;2189490;81;21027;-82
2022/03/04 13:49:48;;;;;;;39.30;24.37;;;;;;;3.30;69.52;99160.91;2189351;81;20964;-83
2022/03/04 13:52:49;;;;;;;44.67;25.77;;;;;;;3.13;70.12;99170.05;2187829;81;21108;-80
2022/03/04 13:55:50;;;;;;;43.13;25.70;;;;;;;3.00;71.09;99176.75;2188694;81;21043;-81
2022/03/04 13:58:50;;;;;;;42.33;26.07;;;;;;;2.88;71.87;99169.32;2188323;81;20947;-81
2022/03/04 14:01:51;;;;;;;46.30;27.23;;;;;;;2.80;72.44;99174.92;2188498;81;20968;-83
2022/03/04 14:04:54;;;;;;;41.47;24.63;;;;;;;2.74;72.64;99172.95;2188030;81;21008;-82
2022/03/04 14:07:54;;;;;;;40.30;23.20;;;;;;;2.69;73.90;99172.25;2187766;81;21003;-81
2022/03/04 14:10:55;;;;;;;41.13;23.60;;;;;;;2.65;73.65;99174.20;2187870;81;21103;-82